Time;durP1;ratioP1;P1;durP2;ratioP2;P2;SDS_P1;SDS_P2;PMS_P1;PMS_P2;Temp;Humidity;BMP_temperature;BMP_pressure;BME280_temperature;BME280_humidity;BME280_pressure;Samples;Min_cycle;Max_cycle;Signal;HPM_P1;HPM_P2
2022/08/05 00:04:56;;;;;;;10.50;9.50;;;;;;;17.72;65.97;99892.96;213406;1276;140853;-63
2022/08/05 00:09:59;;;;;;;9.90;8.60;;;;;;;17.74;66.25;99892.52;214794;1276;140592;-62
2022/08/05 00:15:01;;;;;;;15.80;9.20;;;;;;;17.72;66.26;99889.58;213379;1277;140928;-63
2022/08/05 00:20:23;;;;;;;12.10;9.50;;;;;;;17.70;66.45;99885.00;215022;1276;140410;-63
2022/08/05 00:25:31;;;;;;;;;;;;;;;17.62;66.32;99883.20;216054;1275;142484;-62
2022/08/05 00:30:48;;;;;;;16.90;11.90;;;;;;;17.41;66.26;99882.08;216612;1275;125903;-63
2022/08/05 00:35:55;;;;;;;11.70;10.50;;;;;;;17.24;66.54;99876.96;215817;1275;141146;-62
2022/08/05 00:41:32;;;;;;;14.50;10.10;;;;;;;17.15;66.86;99874.88;215179;1277;141587;-62
2022/08/05 00:46:54;;;;;;;13.00;9.50;;;;;;;17.17;67.04;99872.68;215062;1275;142295;-62
2022/08/05 00:52:07;;;;;;;10.00;9.10;;;;;;;17.15;66.99;99871.06;213340;1275;141895;-62
2022/08/05 00:57:09;;;;;;;10.20;9.20;;;;;;;17.12;67.14;99866.13;213332;1274;142194;-63
2022/08/05 01:02:12;;;;;;;12.80;8.80;;;;;;;17.05;67.15;99864.81;213935;1277;164061;-63
2022/08/05 01:07:18;;;;;;;9.40;8.10;;;;;;;17.00;67.40;99863.42;213427;1274;141230;-62
2022/08/05 01:12:24;;;;;;;10.00;9.00;;;;;;;16.98;67.51;99858.69;213386;1274;142679;-62
2022/08/05 01:17:42;;;;;;;8.10;7.40;;;;;;;16.95;67.61;99855.62;214494;1274;141634;-63
2022/08/05 01:23:00;;;;;;;8.00;7.30;;;;;;;16.92;67.76;99852.40;213111;1277;142938;-62
2022/08/05 01:28:31;;;;;;;23.90;8.60;;;;;;;16.90;67.75;99849.55;214158;1274;141101;-61
2022/08/05 01:33:42;;;;;;;7.70;7.00;;;;;;;16.88;67.74;99841.14;213363;1274;142142;-62
2022/08/05 01:38:56;;;;;;;18.50;8.50;;;;;;;16.89;67.88;99840.02;213985;1274;141221;-61
2022/08/05 01:44:05;;;;;;;9.60;6.90;;;;;;;16.87;68.07;99841.36;213616;1274;142961;-61
2022/08/05 01:49:17;;;;;;;7.60;7.00;;;;;;;16.82;68.13;99832.50;214108;1274;141558;-62
2022/08/05 01:54:48;;;;;;;7.40;6.70;;;;;;;16.75;68.16;99826.50;213309;1274;145027;-62
2022/08/05 01:59:59;;;;;;;6.80;6.20;;;;;;;16.70;68.30;99821.39;213931;1277;141881;-62
2022/08/05 02:05:06;;;;;;;11.10;7.80;;;;;;;16.66;68.34;99827.16;215235;1274;140538;-61
2022/08/05 02:10:13;;;;;;;7.30;6.60;;;;;;;16.58;68.51;99828.64;213185;1274;140704;-63
2022/08/05 02:15:25;;;;;;;7.30;6.40;;;;;;;16.51;68.43;99819.08;214934;1274;140496;-60
2022/08/05 02:20:50;;;;;;;7.70;7.00;;;;;;;16.40;68.37;99813.66;215729;1272;140001;-63
2022/08/05 02:25:56;;;;;;;9.20;7.30;;;;;;;16.30;68.72;99807.05;216036;1274;140223;-64
2022/08/05 02:31:10;;;;;;;8.50;6.80;;;;;;;16.22;68.79;99806.36;215865;1274;139520;-63
2022/08/05 02:36:21;;;;;;;10.30;7.80;;;;;;;16.20;69.01;99797.38;214762;1274;151931;-62
2022/08/05 02:41:33;;;;;;;11.50;7.00;;;;;;;16.22;69.02;99800.97;214390;1272;141913;-62
2022/08/05 02:46:58;;;;;;;10.20;6.60;;;;;;;16.19;69.17;99803.18;215006;1274;141441;-61
2022/08/05 02:52:07;;;;;;;7.60;6.10;;;;;;;16.08;69.28;99799.31;213676;1274;139923;-62
2022/08/05 02:57:16;;;;;;;10.00;6.80;;;;;;;16.02;69.32;99794.85;215151;1275;140573;-64
2022/08/05 03:02:43;;;;;;;7.20;6.30;;;;;;;15.93;69.37;99787.52;215038;1274;142713;-62
2022/08/05 03:07:46;;;;;;;8.10;7.50;;;;;;;15.87;69.62;99784.05;213556;1274;140581;-62
2022/08/05 03:13:17;;;;;;;7.60;7.00;;;;;;;15.83;69.79;99784.64;213491;1274;140272;-62
2022/08/05 03:18:20;;;;;;;6.90;6.30;;;;;;;15.76;70.10;99786.40;214304;1275;140979;-62
2022/08/05 03:23:34;;;;;;;14.40;6.50;;;;;;;15.76;70.22;99788.44;213608;1274;139859;-62
2022/08/05 03:28:40;;;;;;;8.60;7.90;;;;;;;15.77;70.28;99784.95;213533;1274;142221;-64
2022/08/05 03:33:45;;;;;;;7.40;6.80;;;;;;;15.75;70.33;99784.95;213336;1274;140626;-62
2022/08/05 03:38:53;;;;;;;6.50;6.00;;;;;;;15.74;70.58;99789.40;213303;1274;140240;-62
2022/08/05 03:43:56;;;;;;;7.60;6.90;;;;;;;15.71;70.66;99785.68;214204;1274;140742;-62
2022/08/05 03:49:13;;;;;;;7.40;6.50;;;;;;;15.78;70.60;99782.64;213702;1274;142221;-63
2022/08/05 03:54:25;;;;;;;8.10;6.90;;;;;;;15.91;70.54;99781.02;214559;1274;206383;-63
2022/08/05 04:00:03;;;;;;;7.90;7.20;;;;;;;15.95;70.84;99780.54;213783;1274;139940;-62
2022/08/05 04:05:08;;;;;;;7.20;6.10;;;;;;;16.15;71.19;99774.58;214081;1276;139682;-62
2022/08/05 04:10:12;;;;;;;12.30;7.10;;;;;;;16.34;71.29;99771.80;216040;1274;141135;-62
2022/08/05 04:15:19;;;;;;;8.70;7.10;;;;;;;16.74;71.33;99769.35;214368;1274;140830;-63
2022/08/05 04:20:27;;;;;;;8.80;7.80;;;;;;;18.01;70.16;99768.38;216029;1274;140365;-64
2022/08/05 04:25:31;;;;;;;6.60;6.00;;;;;;;19.07;69.23;99771.18;214890;1276;139892;-63
2022/08/05 04:30:54;;;;;;;8.30;6.30;;;;;;;19.81;68.39;99763.98;216141;1274;139682;-64
2022/08/05 04:35:56;;;;;;;6.40;6.00;;;;;;;19.94;67.96;99761.63;215386;1274;139603;-62
2022/08/05 04:41:18;;;;;;;7.30;6.60;;;;;;;20.52;66.99;99760.19;215084;1275;140310;-63
2022/08/05 04:46:20;;;;;;;6.70;5.80;;;;;;;20.76;66.52;99760.75;214294;1276;141276;-62
2022/08/05 04:51:31;;;;;;;7.50;6.80;;;;;;;20.89;65.99;99765.95;214933;1274;142128;-62
2022/08/05 04:56:36;;;;;;;6.60;6.00;;;;;;;20.73;65.74;99772.40;213412;1274;139645;-62
2022/08/05 05:01:39;;;;;;;6.60;6.10;;;;;;;20.38;65.83;99773.23;213464;1274;140380;-62
2022/08/05 05:07:02;;;;;;;8.30;6.90;;;;;;;20.16;66.15;99775.70;214664;1274;139602;-63
2022/08/05 05:12:05;;;;;;;6.40;5.80;;;;;;;20.02;66.18;99772.73;213778;1274;143239;-61
2022/08/05 05:17:09;;;;;;;8.10;6.30;;;;;;;19.89;66.24;99771.17;213782;1274;140920;-61
2022/08/05 05:22:12;;;;;;;7.10;6.30;;;;;;;20.10;66.48;99768.33;213887;1274;140554;-61
2022/08/05 05:27:33;;;;;;;5.80;5.20;;;;;;;22.88;63.02;99767.92;213498;1274;140820;-61
2022/08/05 05:32:45;;;;;;;8.30;6.00;;;;;;;24.72;60.96;99769.73;214237;1274;143841;-61
2022/08/05 05:37:50;;;;;;;8.00;6.30;;;;;;;27.87;56.58;99773.73;214194;1274;141878;-60
2022/08/05 05:43:04;;;;;;;8.10;4.40;;;;;;;30.86;52.01;99780.08;214289;1274;141376;-62
2022/08/05 05:48:11;;;;;;;4.10;3.80;;;;;;;32.81;48.35;99778.42;214086;1274;141069;-62
2022/08/05 05:53:18;;;;;;;4.60;3.40;;;;;;;33.55;45.24;99788.20;215506;1274;139528;-63
2022/08/05 05:58:28;;;;;;;3.90;3.10;;;;;;;32.17;44.11;99787.73;214366;1274;139338;-62
2022/08/05 06:03:36;;;;;;;4.20;3.50;;;;;;;32.12;42.88;99789.89;215557;1274;139387;-61
2022/08/05 06:08:59;;;;;;;6.10;4.20;;;;;;;32.59;42.44;99785.17;215750;1274;142275;-62
2022/08/05 06:14:03;;;;;;;3.30;3.00;;;;;;;31.53;43.54;99782.25;216227;1274;140137;-64
2022/08/05 06:19:06;;;;;;;5.00;3.90;;;;;;;29.98;43.48;99778.02;215402;1273;139713;-62
2022/08/05 06:24:10;;;;;;;4.10;3.70;;;;;;;28.87;44.89;99777.34;216175;1273;139983;-62
2022/08/05 06:29:17;;;;;;;6.20;4.40;;;;;;;28.24;45.44;99771.67;216108;1274;139600;-62
2022/08/05 06:34:41;;;;;;;3.80;3.60;;;;;;;27.44;46.77;99768.29;214040;1274;139443;-61
2022/08/05 06:39:49;;;;;;;6.30;4.50;;;;;;;26.92;47.76;99771.80;214327;1274;139815;-62
2022/08/05 06:44:52;;;;;;;6.00;4.50;;;;;;;26.57;48.61;99769.95;213786;1274;140900;-61
2022/08/05 06:49:55;;;;;;;6.80;4.80;;;;;;;26.11;49.34;99770.39;213659;1274;139919;-62
2022/08/05 06:55:05;;;;;;;6.10;5.00;;;;;;;25.95;50.31;99760.85;213974;1275;139354;-63
2022/08/05 07:00:09;;;;;;;5.20;4.80;;;;;;;26.30;50.85;99751.30;214446;1274;140660;-61
2022/08/05 07:05:14;;;;;;;5.70;5.20;;;;;;;27.27;50.24;99752.59;215034;1274;140181;-61
2022/08/05 07:10:24;;;;;;;5.20;4.70;;;;;;;29.14;48.79;99748.30;213572;1274;140222;-60
2022/08/05 07:21:07;;;;;;;3.60;3.20;;;;;;;32.23;45.43;99750.48;213470;1273;141388;-62
2022/08/05 07:26:11;;;;;;;3.60;3.40;;;;;;;32.76;44.71;99746.84;213439;1274;140172;-63
2022/08/05 07:31:18;;;;;;;4.50;4.00;;;;;;;33.09;43.03;99748.95;213701;1274;1266338;-64
2022/08/05 07:36:42;;;;;;;5.30;3.70;;;;;;;33.12;42.49;99755.37;213946;1274;139750;-62
2022/08/05 07:41:45;;;;;;;3.10;2.90;;;;;;;32.83;41.73;99753.85;214787;1274;139356;-63
2022/08/05 07:47:10;;;;;;;3.50;3.00;;;;;;;32.93;42.68;99751.94;214487;1274;139960;-63
2022/08/05 07:52:20;;;;;;;4.00;3.70;;;;;;;33.35;42.21;99751.19;215187;1274;140224;-63
2022/08/05 07:57:26;;;;;;;2.90;2.80;;;;;;;32.90;40.00;99750.58;214788;1274;140504;-63
2022/08/05 08:02:53;;;;;;;4.70;3.20;;;;;;;32.45;40.61;99742.31;215166;1274;139863;-64
2022/08/05 08:08:18;;;;;;;3.90;3.40;;;;;;;32.57;41.36;99742.35;215357;1274;139650;-65
2022/08/05 08:13:22;;;;;;;3.70;3.30;;;;;;;32.55;40.95;99743.13;215473;1274;140300;-65
2022/08/05 08:18:31;;;;;;;3.30;3.10;;;;;;;32.55;40.53;99744.70;216224;1274;140582;-64
2022/08/05 08:23:35;;;;;;;3.00;2.90;;;;;;;32.48;40.55;99742.11;215997;1274;140016;-64
2022/08/05 08:29:00;;;;;;;3.20;3.00;;;;;;;32.31;39.25;99738.64;215924;1274;141082;-66
2022/08/05 08:34:26;;;;;;;;;;;;;;;32.23;39.74;99740.39;215797;1274;152162;-65
2022/08/05 08:39:35;;;;;;;4.00;3.60;;;;;;;32.23;39.25;99737.80;214373;1274;126871;-64
2022/08/05 08:44:43;;;;;;;3.50;2.90;;;;;;;32.14;39.21;99738.16;213842;1274;139466;-67
2022/08/05 08:50:10;;;;;;;3.40;3.20;;;;;;;32.00;39.36;99741.42;214575;1275;140572;-68
2022/08/05 08:55:33;;;;;;;3.20;3.00;;;;;;;32.22;39.80;99733.05;213973;1274;140594;-65
2022/08/05 09:00:57;;;;;;;3.80;3.60;;;;;;;32.37;39.93;99736.66;214997;1273;139304;-65
2022/08/05 09:06:00;;;;;;;3.60;3.40;;;;;;;32.38;39.74;99737.55;214302;1274;139480;-65
2022/08/05 09:11:14;;;;;;;3.80;3.40;;;;;;;32.40;38.94;99733.94;214221;1274;140299;-65
2022/08/05 09:16:18;;;;;;;4.20;3.90;;;;;;;32.43;39.19;99726.70;214653;1274;140350;-65
2022/08/05 09:21:32;;;;;;;4.50;3.50;;;;;;;32.58;39.12;99719.41;213323;1274;141468;-65
2022/08/05 09:26:57;;;;;;;3.20;3.00;;;;;;;32.58;38.75;99716.18;213824;1274;140512;-64
2022/08/05 09:32:05;;;;;;;3.60;3.40;;;;;;;32.44;37.99;99707.55;214130;1274;139435;-65
2022/08/05 09:37:30;;;;;;;4.30;3.90;;;;;;;32.10;38.15;99705.20;213920;1275;139339;-64
2022/08/05 09:42:53;;;;;;;3.50;3.30;;;;;;;32.24;38.34;99700.05;214424;1274;139405;-64
2022/08/05 09:47:57;;;;;;;13.60;4.00;;;;;;;32.19;38.31;99702.45;214991;1274;139259;-65
2022/08/05 09:53:01;;;;;;;3.40;3.10;;;;;;;32.28;38.59;99706.08;215384;1274;139935;-65
2022/08/05 09:58:13;;;;;;;3.10;2.90;;;;;;;32.39;38.14;99700.66;214714;1274;140941;-65
2022/08/05 10:03:16;;;;;;;3.60;3.30;;;;;;;32.41;37.73;99701.54;214333;1274;141287;-65
2022/08/05 10:08:25;;;;;;;4.80;4.50;;;;;;;32.24;37.70;99693.36;214793;1274;140075;-64
2022/08/05 10:13:40;;;;;;;3.80;3.50;;;;;;;32.22;37.79;99690.65;215821;1274;140749;-68
2022/08/05 10:18:50;;;;;;;5.40;3.30;;;;;;;32.21;37.51;99683.86;216060;1274;141067;-67
2022/08/05 10:23:53;;;;;;;7.00;3.70;;;;;;;32.28;38.02;99678.50;215958;1274;141056;-66
2022/08/05 10:29:02;;;;;;;4.70;3.90;;;;;;;32.49;38.15;99675.73;215983;1274;142274;-66
2022/08/05 10:34:07;;;;;;;3.90;3.70;;;;;;;32.60;38.02;99669.13;215076;1274;140298;-65
2022/08/05 10:39:16;;;;;;;7.80;4.10;;;;;;;32.56;37.79;99670.04;213728;1274;140650;-64
2022/08/05 10:44:44;;;;;;;4.10;3.80;;;;;;;32.62;37.74;99667.55;213933;1274;140580;-66
2022/08/05 10:50:10;;;;;;;3.90;3.60;;;;;;;32.59;37.50;99662.81;213438;1274;205484;-65
2022/08/05 10:55:33;;;;;;;4.10;3.90;;;;;;;32.67;37.41;99657.34;213801;1274;140054;-64
2022/08/05 11:00:55;;;;;;;4.20;3.90;;;;;;;32.63;37.48;99651.80;213423;1274;142194;-65
2022/08/05 11:06:07;;;;;;;3.90;3.60;;;;;;;32.78;37.34;99645.82;214508;1274;140274;-64
2022/08/05 11:11:37;;;;;;;4.10;3.90;;;;;;;32.71;37.19;99646.64;214354;1274;139650;-64
2022/08/05 11:17:25;;;;;;;4.00;3.70;;;;;;;32.89;36.78;99643.21;214196;1276;139505;-65
2022/08/05 11:22:50;;;;;;;3.70;3.50;;;;;;;32.92;36.75;99640.87;214137;1274;139985;-65
2022/08/05 11:28:16;;;;;;;3.80;3.10;;;;;;;32.85;36.49;99640.27;213561;1274;139536;-65
2022/08/05 11:33:29;;;;;;;4.10;3.70;;;;;;;32.72;36.29;99641.99;214434;1274;140223;-64
2022/08/05 11:38:49;;;;;;;4.10;3.80;;;;;;;32.82;36.39;99640.73;214113;1274;140123;-65
2022/08/05 11:44:16;;;;;;;7.20;4.20;;;;;;;32.94;36.78;99636.06;214929;1274;139899;-65
2022/08/05 11:49:39;;;;;;;3.40;3.20;;;;;;;32.88;36.12;99639.34;215554;1274;141346;-66
2022/08/05 11:54:52;;;;;;;11.40;4.00;;;;;;;32.76;36.09;99643.68;214135;1274;140392;-64
2022/08/05 11:59:57;;;;;;;4.20;3.60;;;;;;;32.66;35.43;99643.38;215044;1275;141235;-65
2022/08/05 12:05:02;;;;;;;6.50;3.90;;;;;;;32.46;35.31;99640.17;215838;1274;139867;-65
2022/08/05 12:10:21;;;;;;;3.20;3.00;;;;;;;32.58;35.55;99637.25;215469;1274;139222;-65
2022/08/05 12:15:26;;;;;;;5.60;3.90;;;;;;;32.84;35.51;99630.02;215367;1275;141096;-66
2022/08/05 12:20:41;;;;;;;4.30;3.10;;;;;;;33.01;35.87;99622.45;215277;1274;140345;-64
2022/08/05 12:25:54;;;;;;;3.40;3.20;;;;;;;33.11;35.25;99620.58;214468;1274;142204;-66
2022/08/05 12:30:59;;;;;;;5.40;3.80;;;;;;;33.06;34.44;99613.85;215093;1274;141252;-66
2022/08/05 12:36:06;;;;;;;3.30;3.10;;;;;;;33.05;34.70;99607.45;214249;1274;141552;-64
2022/08/05 12:41:19;;;;;;;4.00;3.70;;;;;;;33.13;34.31;99600.62;214133;1274;140017;-65
2022/08/05 12:46:37;;;;;;;8.40;4.30;;;;;;;33.20;34.61;99597.41;213437;1275;141676;-65
2022/08/05 12:51:48;;;;;;;3.50;3.30;;;;;;;33.28;34.32;99600.08;213985;1274;141087;-65
2022/08/05 12:57:17;;;;;;;3.80;3.50;;;;;;;33.17;33.78;99597.95;213233;1274;140859;-65
2022/08/05 13:02:26;;;;;;;4.00;3.80;;;;;;;33.07;33.98;99594.29;213967;1274;140890;-65
2022/08/05 13:07:31;;;;;;;4.00;3.70;;;;;;;33.06;33.77;99588.21;213651;1276;141446;-64
2022/08/05 13:12:55;;;;;;;2.70;2.60;;;;;;;32.85;33.85;99583.17;213317;1276;140225;-64
2022/08/05 13:18:01;;;;;;;4.10;3.70;;;;;;;32.77;33.88;99580.75;213361;1276;141005;-65
2022/08/05 13:23:05;;;;;;;3.60;3.30;;;;;;;32.85;34.43;99577.72;213414;1276;140736;-65
2022/08/05 13:28:08;;;;;;;2.80;2.70;;;;;;;32.93;33.99;99565.22;213486;1276;141429;-65
2022/08/05 13:33:12;;;;;;;3.60;3.30;;;;;;;33.04;34.12;99564.54;213391;1276;143143;-63
2022/08/05 13:38:38;;;;;;;4.10;3.70;;;;;;;33.16;33.43;99559.99;214813;1276;140740;-65
2022/08/05 13:43:44;;;;;;;3.20;3.00;;;;;;;33.08;33.39;99558.86;214525;1275;140568;-65
2022/08/05 13:48:56;;;;;;;4.70;3.40;;;;;;;33.14;33.78;99553.44;213428;1276;160385;-64
2022/08/05 13:54:03;;;;;;;3.00;2.80;;;;;;;33.25;33.92;99546.30;213491;1276;142882;-64
2022/08/05 13:59:16;;;;;;;3.10;2.90;;;;;;;33.30;33.71;99548.45;213509;1274;141390;-62
2022/08/05 14:09:52;;;;;;;2.60;2.50;;;;;;;33.22;33.40;99544.63;215900;1274;139511;-66
2022/08/05 14:14:55;;;;;;;3.30;3.10;;;;;;;32.97;32.78;99539.13;216185;1274;141989;-63
2022/08/05 14:19:59;;;;;;;3.70;3.30;;;;;;;32.94;32.88;99543.21;213419;1276;141185;-66
2022/08/05 14:25:10;;;;;;;3.50;3.30;;;;;;;33.06;32.75;99533.21;215732;1274;140656;-66
2022/08/05 14:30:24;;;;;;;3.30;3.10;;;;;;;33.11;33.00;99536.78;214169;1274;141062;-63
2022/08/05 14:35:28;;;;;;;3.10;2.70;;;;;;;32.91;32.36;99532.39;214645;1275;140265;-63
2022/08/05 14:40:51;;;;;;;2.90;2.60;;;;;;;32.84;32.91;99535.98;213284;1274;141291;-62
2022/08/05 14:45:53;;;;;;;3.00;2.90;;;;;;;32.89;32.83;99537.75;214271;1276;141280;-63
2022/08/05 14:50:57;;;;;;;5.40;3.50;;;;;;;32.88;32.74;99539.24;214386;1275;139962;-66
2022/08/05 14:55:59;;;;;;;2.90;2.70;;;;;;;32.80;32.78;99537.70;213476;1274;143312;-65
2022/08/05 15:01:02;;;;;;;3.60;3.30;;;;;;;32.65;32.87;99535.98;213520;1274;142001;-65
2022/08/05 15:06:05;;;;;;;3.90;3.60;;;;;;;32.69;33.39;99530.95;213217;1276;140688;-66
2022/08/05 15:11:16;;;;;;;4.00;3.70;;;;;;;32.71;33.32;99523.63;213943;1276;140644;-64
2022/08/05 15:16:19;;;;;;;4.50;4.10;;;;;;;32.62;33.60;99511.36;213364;1277;140286;-65
2022/08/05 15:21:26;;;;;;;5.40;3.40;;;;;;;32.62;33.60;99509.23;213537;1276;139890;-64
2022/08/05 15:26:33;;;;;;;4.80;3.10;;;;;;;32.61;34.30;99509.54;213300;1276;140676;-65
2022/08/05 15:31:37;;;;;;;;;;;;;;;32.50;33.47;99501.36;214066;1277;141107;-64
2022/08/05 15:36:39;;;;;;;3.70;3.50;;;;;;;32.45;33.66;99500.70;213975;1277;128221;-64
2022/08/05 15:41:42;;;;;;;3.90;3.70;;;;;;;32.47;33.40;99496.77;213842;1276;140007;-66
2022/08/05 15:47:00;;;;;;;5.50;4.70;;;;;;;32.46;34.36;99496.14;214104;1277;142052;-65
2022/08/05 15:52:03;;;;;;;5.10;4.70;;;;;;;32.32;34.46;99498.53;214334;1275;141130;-65
2022/08/05 15:57:25;;;;;;;4.20;3.70;;;;;;;32.22;34.88;99500.20;214875;1276;139783;-64
2022/08/05 16:02:35;;;;;;;5.00;3.70;;;;;;;32.02;34.97;99504.86;213965;1272;141173;-64
2022/08/05 16:07:37;;;;;;;4.30;3.90;;;;;;;31.94;35.42;99506.54;214465;1274;230730;-64
2022/08/05 16:12:48;;;;;;;4.80;4.50;;;;;;;31.87;36.22;99508.14;215826;1274;139965;-66
2022/08/05 16:17:57;;;;;;;4.50;4.20;;;;;;;31.87;37.92;99503.25;215740;1276;141624;-65
2022/08/05 16:23:16;;;;;;;8.10;4.40;;;;;;;31.81;37.94;99501.02;214717;1274;140895;-65
2022/08/05 16:28:18;;;;;;;5.00;4.60;;;;;;;31.75;39.12;99501.45;216069;1274;139897;-64
2022/08/05 16:33:20;;;;;;;11.30;4.70;;;;;;;31.63;39.54;99500.46;215729;1274;140878;-65
2022/08/05 16:38:22;;;;;;;5.70;4.40;;;;;;;31.47;39.44;99493.95;216281;1274;139824;-64
2022/08/05 16:43:31;;;;;;;8.00;4.80;;;;;;;31.30;39.88;99486.55;216119;1274;139816;-66
2022/08/05 16:48:33;;;;;;;4.70;4.40;;;;;;;31.16;40.64;99482.95;216214;1274;228261;-64
2022/08/05 16:58:57;;;;;;;5.20;4.60;;;;;;;30.91;42.20;99482.60;212977;1316;656070;-63
2022/08/05 17:04:12;;;;;;;6.20;5.00;;;;;;;30.69;42.49;99484.16;211562;1289;139398;-64
2022/08/05 17:09:18;;;;;;;5.50;5.00;;;;;;;30.50;42.93;99480.93;208053;1287;4415565;-64
2022/08/05 17:14:23;;;;;;;12.70;5.70;;;;;;;30.27;43.66;99479.29;215444;1274;138979;-64
2022/08/05 17:19:42;;;;;;;10.50;5.50;;;;;;;30.04;43.98;99476.91;213531;1276;139827;-65
2022/08/05 17:24:47;;;;;;;8.20;5.90;;;;;;;29.79;45.38;99484.39;214068;1274;139691;-63
2022/08/05 17:30:05;;;;;;;5.70;5.20;;;;;;;29.53;46.17;99493.39;213280;1274;142467;-63
2022/08/05 17:35:34;;;;;;;6.50;6.00;;;;;;;29.24;46.76;99488.70;213918;1274;140416;-64
2022/08/05 17:41:01;;;;;;;6.40;5.90;;;;;;;28.92;47.25;99485.38;213414;1274;139846;-64
2022/08/05 17:46:12;;;;;;;6.80;6.20;;;;;;;28.64;48.13;99486.61;213847;1274;140497;-63
2022/08/05 17:51:20;;;;;;;8.20;5.40;;;;;;;28.37;48.52;99486.36;213689;1274;142730;-64
2022/08/05 17:56:24;;;;;;;6.90;6.40;;;;;;;28.09;48.80;99482.13;214079;1274;141378;-63
2022/08/05 18:01:30;;;;;;;7.10;6.30;;;;;;;27.82;49.14;99483.14;214095;1274;138860;-66
2022/08/05 18:06:52;;;;;;;7.20;6.60;;;;;;;27.52;49.94;99482.95;213292;1274;140543;-64
2022/08/05 18:12:03;;;;;;;7.00;6.50;;;;;;;27.25;50.71;99485.78;213250;1274;141092;-64
2022/08/05 18:17:07;;;;;;;6.50;6.00;;;;;;;26.99;51.39;99489.08;213379;1274;139755;-64
2022/08/05 18:22:30;;;;;;;7.90;7.20;;;;;;;26.72;52.03;99495.49;213929;1274;139609;-64
2022/08/05 18:27:53;;;;;;;7.30;6.80;;;;;;;26.45;52.94;99497.13;215741;1274;139555;-63
2022/08/05 18:33:00;;;;;;;7.40;6.80;;;;;;;26.22;53.94;99498.39;215544;1277;139615;-64
2022/08/05 18:38:03;;;;;;;7.20;6.60;;;;;;;26.02;54.50;99505.82;215556;1276;140984;-62
2022/08/05 18:43:06;;;;;;;8.70;7.90;;;;;;;25.82;55.09;99504.10;212738;1276;140980;-65
2022/08/05 18:48:18;;;;;;;16.10;8.60;;;;;;;25.62;55.37;99509.06;214948;1277;140794;-63
2022/08/05 18:53:33;;;;;;;9.90;8.90;;;;;;;25.33;55.80;99514.76;213112;1277;141445;-64
2022/08/05 18:58:52;;;;;;;8.80;8.00;;;;;;;25.13;56.46;99523.66;213758;1277;140510;-64
2022/08/05 19:04:03;;;;;;;9.50;8.00;;;;;;;24.97;56.90;99521.54;214107;1276;139543;-64
2022/08/05 19:09:25;;;;;;;16.80;9.30;;;;;;;24.75;57.16;99520.73;214364;1277;141084;-63
2022/08/05 19:14:52;;;;;;;14.40;8.20;;;;;;;24.57;57.56;99521.45;212965;1276;140613;-65
2022/08/05 19:20:09;;;;;;;12.40;8.40;;;;;;;24.42;58.28;99523.38;213301;1277;140286;-63
2022/08/05 19:25:13;;;;;;;9.00;7.90;;;;;;;24.30;58.90;99523.55;213562;1277;140823;-64
2022/08/05 19:30:32;;;;;;;8.40;7.70;;;;;;;24.07;58.45;99518.48;213314;1276;140385;-64
2022/08/05 19:35:36;;;;;;;15.10;8.20;;;;;;;23.87;58.82;99514.05;214095;1276;140068;-64
2022/08/05 19:40:58;;;;;;;10.30;9.00;;;;;;;23.76;59.04;99520.27;213166;1277;139842;-64
2022/08/05 19:46:09;;;;;;;17.70;8.30;;;;;;;23.70;59.00;99525.11;213506;1276;140224;-64
2022/08/05 19:51:34;;;;;;;8.80;8.00;;;;;;;23.62;59.08;99526.86;214640;1276;139313;-65
2022/08/05 19:56:59;;;;;;;9.00;7.70;;;;;;;23.58;59.25;99516.35;214257;1277;141331;-63
2022/08/05 20:02:08;;;;;;;8.00;7.40;;;;;;;23.56;59.46;99516.83;215771;1276;141090;-63
2022/08/05 20:07:13;;;;;;;8.40;7.70;;;;;;;23.56;59.25;99516.98;214524;1276;138742;-63
2022/08/05 20:12:18;;;;;;;8.30;7.50;;;;;;;23.57;59.01;99523.48;215841;1276;140548;-63
2022/08/05 20:17:25;;;;;;;8.50;7.80;;;;;;;23.56;58.88;99519.86;215831;1276;140013;-64
2022/08/05 20:22:29;;;;;;;;;;;;;;;23.54;58.61;99516.43;214910;1276;139514;-64
2022/08/05 20:27:35;;;;;;;9.00;8.10;;;;;;;23.48;58.55;99518.89;216512;1276;126162;-65
2022/08/05 20:32:45;;;;;;;15.50;6.90;;;;;;;23.43;58.22;99523.81;215629;1276;139177;-63
2022/08/05 20:37:50;;;;;;;12.20;7.30;;;;;;;23.36;58.43;99525.45;213897;1276;139872;-64
2022/08/05 20:43:10;;;;;;;9.10;8.30;;;;;;;23.30;58.90;99524.57;213784;1276;139393;-64
2022/08/05 20:48:15;;;;;;;8.90;7.40;;;;;;;23.25;59.05;99522.95;213270;1276;228852;-64
2022/08/05 20:53:20;;;;;;;12.50;8.00;;;;;;;23.18;59.35;99523.23;214199;1276;139033;-64
2022/08/05 20:58:44;;;;;;;8.50;7.80;;;;;;;23.13;59.64;99524.34;213330;1276;139653;-63
2022/08/05 21:03:49;;;;;;;7.60;6.90;;;;;;;23.04;60.01;99525.10;212950;1276;139366;-66
2022/08/05 21:08:53;;;;;;;7.90;7.00;;;;;;;22.99;60.44;99530.16;214798;1276;139799;-63
2022/08/05 21:13:59;;;;;;;13.00;7.50;;;;;;;22.95;60.77;99533.78;213133;1276;139541;-66
2022/08/05 21:19:04;;;;;;;11.60;8.90;;;;;;;22.85;60.87;99534.73;213118;1276;150710;-64
2022/08/05 21:24:11;;;;;;;9.30;8.00;;;;;;;22.73;61.33;99534.56;213121;1277;139871;-65
2022/08/05 21:29:18;;;;;;;10.80;9.10;;;;;;;22.64;61.09;99575.45;213316;1276;140402;-64
2022/08/05 21:34:29;;;;;;;11.40;8.60;;;;;;;22.57;60.56;99588.02;213977;1276;139033;-63
2022/08/05 21:39:35;;;;;;;;;;;;;;;22.57;60.22;99607.60;213148;1276;140129;-64
2022/08/05 21:44:45;;;;;;;7.90;7.20;;;;;;;22.68;60.03;99612.66;213538;1276;126009;-63
2022/08/05 21:49:50;;;;;;;11.70;7.80;;;;;;;22.79;59.59;99616.70;214327;1276;139023;-64
2022/08/05 21:55:06;;;;;;;7.30;6.60;;;;;;;22.82;59.30;99627.96;213810;1276;139073;-65
2022/08/05 22:00:11;;;;;;;7.50;7.00;;;;;;;22.87;59.31;99631.36;213353;1276;138981;-63
2022/08/05 22:05:16;;;;;;;;;;;;;;;22.90;59.35;99635.24;215595;1276;140052;-64
2022/08/05 22:10:29;;;;;;;22.10;7.60;;;;;;;22.89;59.46;99635.27;216313;1276;126028;-64
2022/08/05 22:15:34;;;;;;;12.90;7.70;;;;;;;22.90;59.57;99637.34;215679;1276;141525;-64
2022/08/05 22:21:00;;;;;;;10.20;8.60;;;;;;;22.91;59.71;99632.72;213002;1276;139436;-64
2022/08/05 22:31:31;;;;;;;9.20;8.30;;;;;;;22.90;59.97;99627.95;213836;1276;139815;-64
2022/08/05 22:36:49;;;;;;;14.10;8.90;;;;;;;22.87;60.38;99630.12;214169;1276;139293;-64
2022/08/05 22:41:53;;;;;;;9.80;8.50;;;;;;;22.85;60.46;99624.68;213362;1276;139666;-65
2022/08/05 22:47:15;;;;;;;9.20;8.40;;;;;;;22.83;60.46;99620.86;213100;1276;139083;-63
2022/08/05 22:52:33;;;;;;;10.10;8.50;;;;;;;22.77;60.47;99628.31;213488;1276;139925;-64
2022/08/05 22:57:40;;;;;;;9.10;8.20;;;;;;;22.70;60.60;99639.77;213268;1276;139329;-65
2022/08/05 23:02:52;;;;;;;9.00;8.00;;;;;;;22.60;61.04;99642.67;213056;1276;138754;-64
2022/08/05 23:07:57;;;;;;;10.50;8.40;;;;;;;22.51;61.22;99641.46;213269;1275;139753;-65
2022/08/05 23:13:01;;;;;;;8.30;7.60;;;;;;;22.41;61.39;99646.80;214400;1276;140290;-65
2022/08/05 23:18:07;;;;;;;9.50;8.60;;;;;;;22.33;61.72;99645.40;212956;1276;139675;-64
2022/08/05 23:23:18;;;;;;;8.90;8.10;;;;;;;22.27;62.02;99639.61;214204;1276;139410;-64
2022/08/05 23:28:25;;;;;;;10.30;9.40;;;;;;;22.16;62.47;99636.05;212999;1276;138725;-66
2022/08/05 23:33:33;;;;;;;9.30;8.40;;;;;;;22.10;62.67;99640.70;214029;1276;141076;-65
2022/08/05 23:38:56;;;;;;;10.00;8.70;;;;;;;22.08;63.04;99644.50;213335;1276;140080;-66
2022/08/05 23:44:00;;;;;;;11.90;9.30;;;;;;;22.05;63.26;99660.93;214450;1276;139463;-65
2022/08/05 23:49:10;;;;;;;9.40;8.50;;;;;;;21.97;63.32;99667.73;215661;1276;140447;-65
2022/08/05 23:54:29;;;;;;;9.70;8.50;;;;;;;21.93;63.43;99669.06;215046;1276;138836;-62
2022/08/05 23:59:40;;;;;;;10.00;9.20;;;;;;;21.95;63.68;99675.04;215384;1276;140252;-63
